VIP Ground Handling & Aviation Services

 

 
Airport

VARNA (VAR)

Ground Handling Services – VAR/LBWN

VIP Ground Handling

State Ground Handling

Military Ground Handling

Slot & PPR Coordination

Fuel Arrangements

Crew Accommodation Arrangements

Crew Transportation

Customs & Immigration Assistance

Executive Terminal Services

Crew Lounge

Flight Planning, Weather Briefing and NOTAMs

Catering Arrangements

Security Services

Aircraft Maintenance

Airport Customs & Immigration

Concierge Services

VIP Meet & Greet

Helicopter Transfers

Chauffeur Services

Aircraft Charter

Yacht Charter

Hire & Rental

Entertainment & Hospitality

Health & Beauty

Delivery Services

Conference & Meeting rooms

Varna Airport, Bulgaria, 9154

+359895151500 (24/7)

+359 2 9459020

bulgaria@alphajetservices.com

Burgas Airport
Airport Type
•Civil
Operating Hours
•24H
Fuel Available
•JET A1
Fire Category
•8
Approaches
•ILS / DME NDB
Available data for LBWN from the past 2 hours
VARNA
Metar
LBWN 261000Z 08013KT 040V120 CAVOK 34/13 Q1019 NOSIG

10:00 UTC

Wind: 80° 13kt

Visibility:

Sky:

Temp: 34 deg C / 93.2 deg F

Dewpoint: 13 deg C / 55.4 deg F

Pressure: 1019 hPa

TAF
TAF LBWN 260500Z 2606/2706 VRB04KT CAVOK BECMG 2606/2608 01014KT BECMG 2612/2614 08016G26KT BECMG 2620/2622 01010KT